createdAt,value
2022-10-30T00:00:31.646Z,98882.00
2022-10-30T00:03:04.618Z,98876.63
2022-10-30T00:05:41.180Z,98883.84
2022-10-30T00:08:24.477Z,98885.53
2022-10-30T00:21:35.472Z,98873.31
2022-10-30T00:24:10.049Z,98877.72
2022-10-30T00:26:43.519Z,98877.84
2022-10-30T00:29:16.794Z,98861.75
2022-10-30T00:31:43.357Z,98866.25
2022-10-30T00:34:23.475Z,98864.56
2022-10-30T00:47:42.451Z,98861.75
2022-10-30T00:50:22.731Z,98854.53
2022-10-30T00:53:09.453Z,98855.63
2022-10-30T00:55:49.187Z,98856.72
2022-10-30T00:58:40.487Z,98854.06
2022-10-30T01:01:20.632Z,98852.09
2022-10-30T01:04:06.536Z,98846.72
2022-10-30T01:14:10.428Z,98841.38
2022-10-30T01:17:18.183Z,98838.69
2022-10-30T01:20:16.554Z,98836.97
2022-10-30T01:23:11.477Z,98835.13
2022-10-30T01:25:57.734Z,98839.66
2022-10-30T01:29:00.445Z,98840.50
2022-10-30T01:42:37.488Z,98830.63
2022-10-30T01:45:19.758Z,98825.25
2022-10-30T01:48:33.446Z,98822.56
2022-10-30T01:51:19.369Z,98826.22
2022-10-30T01:54:12.462Z,98822.69
2022-10-30T02:07:33.449Z,98811.09
2022-10-30T02:10:19.391Z,98802.06
2022-10-30T02:12:59.468Z,98800.34
2022-10-30T02:15:36.506Z,98801.22
2022-10-30T02:18:17.717Z,98793.25
2022-10-30T02:20:52.858Z,98800.34
2022-10-30T02:23:27.457Z,98786.06
2022-10-30T02:36:23.448Z,98786.91
2022-10-30T02:38:57.068Z,98793.25
2022-10-30T02:41:30.481Z,98787.88
2022-10-30T02:44:04.753Z,98785.19
2022-10-30T02:46:38.473Z,98781.69
2022-10-30T02:49:12.768Z,98790.56
2022-10-30T03:02:02.505Z,98772.03
2022-10-30T03:04:42.450Z,98773.75
2022-10-30T03:07:15.725Z,98772.75
2022-10-30T03:09:42.294Z,98770.06
2022-10-30T03:12:22.456Z,98777.16
2022-10-30T03:14:55.541Z,98773.50
2022-10-30T03:27:48.435Z,98779.97
2022-10-30T03:30:28.441Z,98785.34
2022-10-30T03:33:03.666Z,98788.03
2022-10-30T03:35:36.520Z,98786.19
2022-10-30T03:38:09.855Z,98784.50
2022-10-30T03:40:43.456Z,98788.16
2022-10-30T03:43:18.901Z,98786.44
2022-10-30T03:56:09.432Z,98785.56
2022-10-30T03:59:10.453Z,98781.06
2022-10-30T04:01:53.371Z,98783.75
2022-10-30T04:04:33.446Z,98782.78
2022-10-30T04:07:06.603Z,98782.78
2022-10-30T04:09:33.196Z,98789.00
2022-10-30T04:22:30.411Z,98778.13
2022-10-30T04:25:12.722Z,98770.81
2022-10-30T04:27:49.636Z,98761.78
2022-10-30T04:30:30.464Z,98767.16
2022-10-30T04:33:06.860Z,98770.66
2022-10-30T04:49:21.437Z,98781.41
2022-10-30T04:51:54.640Z,98784.09
2022-10-30T04:54:28.463Z,98769.09
2022-10-30T04:57:02.732Z,98787.88
2022-10-30T04:59:36.473Z,98791.53
2022-10-30T05:02:10.292Z,98778.13
2022-10-30T05:04:45.458Z,98763.00
2022-10-30T05:14:45.421Z,98759.31
2022-10-30T05:17:25.499Z,98753.94
2022-10-30T05:20:00.624Z,98742.38
2022-10-30T05:22:33.475Z,98738.84
2022-10-30T05:25:07.951Z,98744.91
2022-10-30T05:27:44.040Z,98750.28
2022-10-30T05:41:32.470Z,98785.34
2022-10-30T05:44:05.603Z,98787.41
2022-10-30T05:46:39.438Z,98788.25
2022-10-30T05:49:12.492Z,98784.72
2022-10-30T05:51:52.473Z,98792.91
2022-10-30T05:54:26.606Z,98795.75
2022-10-30T06:08:14.404Z,98791.34
2022-10-30T06:11:00.449Z,98786.94
2022-10-30T06:13:40.135Z,98782.41
2022-10-30T06:16:22.521Z,98773.38
2022-10-30T06:19:17.637Z,98775.34
2022-10-30T06:22:03.454Z,98792.31
2022-10-30T06:24:48.500Z,98794.25
2022-10-30T06:35:06.487Z,98781.81
2022-10-30T06:37:45.512Z,98787.19
2022-10-30T06:40:26.450Z,98787.19
2022-10-30T06:43:17.465Z,98789.88
2022-10-30T06:46:04.524Z,98786.34
2022-10-30T06:48:41.057Z,98782.69
2022-10-30T07:01:55.607Z,98779.13
2022-10-30T07:04:50.464Z,98781.72
2022-10-30T07:07:24.075Z,98787.91
2022-10-30T07:09:57.469Z,98790.59
2022-10-30T07:13:02.021Z,98787.78
2022-10-30T07:29:35.693Z,98807.94
2022-10-30T07:32:34.278Z,98813.28
2022-10-30T07:35:21.460Z,98820.38
2022-10-30T07:38:01.855Z,98812.19
2022-10-30T07:40:49.480Z,98814.03
2022-10-30T07:43:45.490Z,98811.34
2022-10-30T07:56:59.414Z,98796.69
2022-10-30T08:00:03.948Z,98805.47
2022-10-30T08:02:41.499Z,98799.84
2022-10-30T08:05:30.394Z,98794.47
2022-10-30T08:08:19.552Z,98795.91
2022-10-30T08:22:05.417Z,98802.59
2022-10-30T08:24:47.445Z,98791.59
2022-10-30T08:27:20.584Z,98790.34
2022-10-30T08:29:47.162Z,98800.97
2022-10-30T08:32:28.532Z,98781.78
2022-10-30T08:35:20.498Z,98786.78
2022-10-30T08:48:54.423Z,98791.56
2022-10-30T08:51:39.430Z,98785.94
2022-10-30T08:54:13.295Z,98779.72
2022-10-30T08:56:46.441Z,98774.94
2022-10-30T08:59:21.321Z,98776.34
2022-10-30T09:01:56.597Z,98771.72
2022-10-30T09:04:49.999Z,98775.88
2022-10-30T09:15:28.429Z,98760.97
2022-10-30T09:18:04.894Z,98765.84
2022-10-30T09:23:20.412Z,98768.81
2022-10-30T09:26:16.976Z,98771.25
2022-10-30T09:29:00.249Z,98770.97
2022-10-30T09:42:53.430Z,98796.03
2022-10-30T09:46:05.445Z,98788.16
2022-10-30T09:49:14.689Z,98789.03
2022-10-30T09:52:14.473Z,98780.84
2022-10-30T09:55:09.665Z,98789.72
2022-10-30T09:58:03.468Z,98794.00
2022-10-30T10:11:22.466Z,98790.09
2022-10-30T10:14:03.710Z,98792.66
2022-10-30T10:16:47.443Z,98794.25
2022-10-30T10:19:28.178Z,98801.19
2022-10-30T10:22:12.428Z,98797.50
2022-10-30T10:24:45.807Z,98790.06
2022-10-30T10:37:52.416Z,98774.88
2022-10-30T10:40:56.441Z,98766.59
2022-10-30T10:43:52.018Z,98772.13
2022-10-30T10:46:51.423Z,98768.50
2022-10-30T10:49:50.853Z,98778.41
2022-10-30T11:02:53.417Z,98765.94
2022-10-30T11:05:40.427Z,98774.97
2022-10-30T11:08:28.057Z,98772.56
2022-10-30T11:11:11.434Z,98767.53
2022-10-30T11:13:44.579Z,98766.91
2022-10-30T11:16:33.458Z,98770.28
2022-10-30T11:19:09.051Z,98771.16
2022-10-30T11:29:17.444Z,98766.13
2022-10-30T11:32:01.359Z,98761.75
2022-10-30T11:34:44.473Z,98755.69
2022-10-30T11:37:31.019Z,98753.41
2022-10-30T11:40:23.733Z,98761.88
2022-10-30T11:43:00.812Z,98764.09
2022-10-30T11:56:22.407Z,98764.78
2022-10-30T11:59:07.435Z,98764.44
2022-10-30T12:01:59.613Z,98769.84
2022-10-30T12:04:42.441Z,98778.69
2022-10-30T12:07:25.969Z,98773.25
2022-10-30T12:10:06.470Z,98770.56
2022-10-30T12:23:25.473Z,98762.38
2022-10-30T12:26:02.078Z,98765.38
2022-10-30T12:28:44.443Z,98759.75
2022-10-30T12:31:23.044Z,98751.59
2022-10-30T12:34:21.464Z,98758.47
2022-10-30T12:37:05.529Z,98751.69
2022-10-30T12:40:06.467Z,98752.00
2022-10-30T12:49:57.456Z,98751.97
2022-10-30T12:52:45.470Z,98741.59
2022-10-30T12:55:27.089Z,98745.13
2022-10-30T12:58:22.448Z,98747.53
2022-10-30T13:01:02.395Z,98737.41
2022-10-30T13:03:49.434Z,98739.78
2022-10-30T13:16:45.439Z,98726.97
2022-10-30T13:19:18.719Z,98729.69
2022-10-30T13:22:03.465Z,98717.81
2022-10-30T13:24:53.228Z,98715.81
2022-10-30T13:27:45.437Z,98706.34
2022-10-30T13:30:21.580Z,98704.03
2022-10-30T13:43:28.408Z,98696.84
2022-10-30T13:46:32.452Z,98693.53
2022-10-30T13:49:36.295Z,98683.88
2022-10-30T13:52:23.250Z,98689.81
2022-10-30T13:55:04.296Z,98695.22
2022-10-30T13:57:54.471Z,98694.34
2022-10-30T14:11:07.448Z,98693.84
2022-10-30T14:13:54.160Z,98690.13
2022-10-30T14:16:50.444Z,98691.00
2022-10-30T14:19:23.494Z,98695.53
2022-10-30T14:22:02.456Z,98700.66
2022-10-30T14:24:43.299Z,98699.63
2022-10-30T14:38:03.425Z,98697.72
2022-10-30T14:40:52.448Z,98696.34
2022-10-30T14:43:42.695Z,98694.66
2022-10-30T14:46:34.435Z,98694.66
2022-10-30T14:49:36.325Z,98700.09
2022-10-30T15:03:16.422Z,98708.22
2022-10-30T15:06:02.546Z,98711.94
2022-10-30T15:08:59.268Z,98710.84
2022-10-30T15:12:13.459Z,98714.19
2022-10-30T15:14:55.040Z,98721.88
2022-10-30T15:17:40.465Z,98717.41
2022-10-30T15:20:20.189Z,98719.00
2022-10-30T15:30:10.542Z,98714.66
2022-10-30T15:32:43.545Z,98720.97
2022-10-30T15:35:24.447Z,98720.06
2022-10-30T15:40:32.460Z,98729.88
2022-10-30T15:43:12.517Z,98732.50
2022-10-30T15:57:27.080Z,98731.16
2022-10-30T16:00:03.501Z,98728.38
2022-10-30T16:02:36.615Z,98729.69
2022-10-30T16:05:27.488Z,98726.75
2022-10-30T16:08:08.944Z,98725.34
2022-10-30T16:24:38.470Z,98727.03
2022-10-30T16:27:17.581Z,98737.28
2022-10-30T16:30:01.466Z,98733.16
2022-10-30T16:32:35.189Z,98726.34
2022-10-30T16:35:12.453Z,98724.09
2022-10-30T16:37:46.281Z,98735.19
2022-10-30T16:40:26.477Z,98722.97
2022-10-30T16:50:26.418Z,98740.22
2022-10-30T16:53:11.449Z,98738.13
2022-10-30T16:55:46.970Z,98740.09
2022-10-30T16:58:24.468Z,98741.25
2022-10-30T17:01:05.474Z,98740.53
2022-10-30T17:03:48.467Z,98742.38
2022-10-30T17:17:35.478Z,98741.00
2022-10-30T17:20:28.151Z,98746.69
2022-10-30T17:23:20.439Z,98752.38
2022-10-30T17:25:55.005Z,98755.19
2022-10-30T17:28:33.466Z,98748.09
2022-10-30T17:45:11.406Z,98747.53
2022-10-30T17:47:51.442Z,98749.50
2022-10-30T17:50:24.500Z,98754.19
2022-10-30T17:52:51.056Z,98749.78
2022-10-30T17:55:39.460Z,98749.09
2022-10-30T17:58:12.873Z,98745.69
2022-10-30T18:11:02.404Z,98738.47
2022-10-30T18:13:42.463Z,98739.47
2022-10-30T18:16:17.821Z,98743.28
2022-10-30T18:18:53.471Z,98737.19
2022-10-30T18:21:26.560Z,98744.44
2022-10-30T18:24:00.427Z,98742.72
2022-10-30T18:37:26.461Z,98749.66
2022-10-30T18:39:59.483Z,98757.03
2022-10-30T18:42:26.080Z,98752.63
2022-10-30T18:45:06.477Z,98751.06
2022-10-30T18:47:39.636Z,98753.91
2022-10-30T18:50:14.437Z,98750.38
2022-10-30T18:52:49.733Z,98747.22
2022-10-30T18:55:28.432Z,98757.16
2022-10-30T19:05:36.417Z,98738.44
2022-10-30T19:08:18.443Z,98738.72
2022-10-30T19:10:54.524Z,98736.16
2022-10-30T19:13:28.497Z,98726.53
2022-10-30T19:16:01.694Z,98738.13
2022-10-30T19:18:35.501Z,98731.91
2022-10-30T19:31:47.449Z,98739.56
2022-10-30T19:34:20.504Z,98735.03
2022-10-30T19:36:47.056Z,98740.41
2022-10-30T19:39:27.504Z,98742.41
2022-10-30T19:42:00.815Z,98742.41
2022-10-30T19:44:27.380Z,98740.97
2022-10-30T19:57:44.427Z,98741.38
2022-10-30T20:00:28.437Z,98750.59
2022-10-30T20:03:04.103Z,98755.00
2022-10-30T20:05:43.169Z,98752.28
2022-10-30T20:08:19.643Z,98754.28
2022-10-30T20:10:57.461Z,98760.66
2022-10-30T20:13:32.627Z,98763.34
2022-10-30T20:26:32.409Z,98775.38
2022-10-30T20:29:15.496Z,98777.22
2022-10-30T20:31:48.548Z,98780.91
2022-10-30T20:34:15.159Z,98774.78
2022-10-30T20:36:55.474Z,98774.94
2022-10-30T20:39:28.509Z,98779.50
2022-10-30T20:52:18.409Z,98779.97
2022-10-30T20:54:58.509Z,98780.22
2022-10-30T20:57:31.568Z,98780.22
2022-10-30T20:59:58.187Z,98773.16
2022-10-30T21:02:38.555Z,98776.94
2022-10-30T21:05:23.622Z,98784.31
2022-10-30T21:18:35.413Z,98780.47
2022-10-30T21:21:15.496Z,98777.06
2022-10-30T21:23:52.964Z,98773.66
2022-10-30T21:26:33.427Z,98776.22
2022-10-30T21:29:06.546Z,98782.44
2022-10-30T21:31:33.479Z,98783.31
2022-10-30T21:34:15.468Z,98788.69
2022-10-30T21:44:42.408Z,98783.31
2022-10-30T21:47:22.453Z,98786.97
2022-10-30T21:49:57.556Z,98786.97
2022-10-30T21:52:30.472Z,98784.44
2022-10-30T21:55:04.714Z,98791.50
2022-10-30T21:57:37.441Z,98793.34
2022-10-30T22:00:13.195Z,98790.66
2022-10-30T22:13:02.500Z,98782.97
2022-10-30T22:15:42.437Z,98784.81
2022-10-30T22:18:15.524Z,98784.09
2022-10-30T22:20:42.064Z,98778.72
2022-10-30T22:23:27.455Z,98778.72
2022-10-30T22:40:04.417Z,98793.56
2022-10-30T22:42:44.452Z,98791.00
2022-10-30T22:45:17.524Z,98794.66
2022-10-30T22:47:56.641Z,98791.97
2022-10-30T22:50:31.016Z,98793.09
2022-10-30T22:53:04.455Z,98795.09
2022-10-30T23:05:31.456Z,98804.13
2022-10-30T23:08:05.182Z,98807.81
2022-10-30T23:10:38.979Z,98800.72
2022-10-30T23:13:14.685Z,98801.09
2022-10-30T23:15:47.473Z,98801.25
2022-10-30T23:18:20.485Z,98799.53
2022-10-30T23:31:46.428Z,98809.72
2022-10-30T23:34:26.449Z,98805.19
2022-10-30T23:37:01.823Z,98806.03
2022-10-30T23:39:35.450Z,98809.72
2022-10-30T23:42:08.701Z,98809.00
2022-10-30T23:44:35.289Z,98809.97
